sensor_id;sensor_type;location;lat;lon;timestamp;temperature;humidity
8226;DHT22;4154;48.810;9.012;2022-08-21T00:00:37;18.00;82.30
8226;DHT22;4154;48.810;9.012;2022-08-21T00:03:08;18.10;95.70
8226;DHT22;4154;48.810;9.012;2022-08-21T00:05:38;17.90;82.90
8226;DHT22;4154;48.810;9.012;2022-08-21T00:08:14;17.90;95.70
8226;DHT22;4154;48.810;9.012;2022-08-21T00:10:42;17.90;83.10
8226;DHT22;4154;48.810;9.012;2022-08-21T00:13:11;17.80;83.20
8226;DHT22;4154;48.810;9.012;2022-08-21T00:15:38;17.80;83.30
8226;DHT22;4154;48.810;9.012;2022-08-21T00:18:07;17.80;83.30
8226;DHT22;4154;48.810;9.012;2022-08-21T00:20:36;17.50;95.70
8226;DHT22;4154;48.810;9.012;2022-08-21T00:23:03;17.40;95.80
8226;DHT22;4154;48.810;9.012;2022-08-21T00:25:29;17.50;95.70
8226;DHT22;4154;48.810;9.012;2022-08-21T00:27:55;17.60;83.20
8226;DHT22;4154;48.810;9.012;2022-08-21T00:30:24;17.60;83.50
8226;DHT22;4154;48.810;9.012;2022-08-21T00:32:52;17.30;95.60
8226;DHT22;4154;48.810;9.012;2022-08-21T00:35:21;17.50;95.90
8226;DHT22;4154;48.810;9.012;2022-08-21T00:37:51;17.40;96.00
8226;DHT22;4154;48.810;9.012;2022-08-21T00:40:20;17.50;83.70
8226;DHT22;4154;48.810;9.012;2022-08-21T00:43:09;17.50;83.70
8226;DHT22;4154;48.810;9.012;2022-08-21T00:45:37;17.50;83.70
8226;DHT22;4154;48.810;9.012;2022-08-21T00:48:03;17.70;96.30
8226;DHT22;4154;48.810;9.012;2022-08-21T00:50:33;17.40;84.00
8226;DHT22;4154;48.810;9.012;2022-08-21T00:53:02;17.30;96.50
8226;DHT22;4154;48.810;9.012;2022-08-21T00:55:31;17.30;84.40
8226;DHT22;4154;48.810;9.012;2022-08-21T00:58:00;17.10;96.40
8226;DHT22;4154;48.810;9.012;2022-08-21T01:00:31;17.20;84.50
8226;DHT22;4154;48.810;9.012;2022-08-21T01:03:00;17.10;96.60
8226;DHT22;4154;48.810;9.012;2022-08-21T01:05:30;17.20;84.80
8226;DHT22;4154;48.810;9.012;2022-08-21T01:07:56;17.10;84.90
8226;DHT22;4154;48.810;9.012;2022-08-21T01:10:22;16.90;96.80
8226;DHT22;4154;48.810;9.012;2022-08-21T01:12:53;16.80;96.80
8226;DHT22;4154;48.810;9.012;2022-08-21T01:15:23;17.00;91.30
8226;DHT22;4154;48.810;9.012;2022-08-21T01:17:54;16.90;85.30
8226;DHT22;4154;48.810;9.012;2022-08-21T01:22:46;17.10;97.10
8226;DHT22;4154;48.810;9.012;2022-08-21T01:25:21;16.80;85.30
8226;DHT22;4154;48.810;9.012;2022-08-21T01:27:48;16.80;85.70
8226;DHT22;4154;48.810;9.012;2022-08-21T01:30:21;16.80;85.90
8226;DHT22;4154;48.810;9.012;2022-08-21T01:32:50;16.70;97.20
8226;DHT22;4154;48.810;9.012;2022-08-21T01:35:18;16.60;97.60
8226;DHT22;4154;48.810;9.012;2022-08-21T01:37:46;16.70;97.40
8226;DHT22;4154;48.810;9.012;2022-08-21T01:40:14;16.70;97.40
8226;DHT22;4154;48.810;9.012;2022-08-21T01:42:42;16.60;97.40
8226;DHT22;4154;48.810;9.012;2022-08-21T01:45:09;16.70;97.40
8226;DHT22;4154;48.810;9.012;2022-08-21T01:47:35;16.70;86.30
8226;DHT22;4154;48.810;9.012;2022-08-21T01:50:04;16.60;97.40
8226;DHT22;4154;48.810;9.012;2022-08-21T01:52:32;16.60;97.40
8226;DHT22;4154;48.810;9.012;2022-08-21T01:54:58;16.60;97.50
8226;DHT22;4154;48.810;9.012;2022-08-21T01:59:51;16.50;97.60
8226;DHT22;4154;48.810;9.012;2022-08-21T02:04:42;16.30;95.50
8226;DHT22;4154;48.810;9.012;2022-08-21T02:07:08;16.50;97.60
8226;DHT22;4154;48.810;9.012;2022-08-21T02:09:34;16.50;97.60
8226;DHT22;4154;48.810;9.012;2022-08-21T02:12:00;16.40;87.00
8226;DHT22;4154;48.810;9.012;2022-08-21T02:14:26;16.30;97.90
8226;DHT22;4154;48.810;9.012;2022-08-21T02:19:18;16.40;97.80
8226;DHT22;4154;48.810;9.012;2022-08-21T02:24:11;16.30;86.40
8226;DHT22;4154;48.810;9.012;2022-08-21T02:26:38;16.10;98.00
8226;DHT22;4154;48.810;9.012;2022-08-21T02:29:04;16.20;86.50
8226;DHT22;4154;48.810;9.012;2022-08-21T02:31:30;16.20;98.00
8226;DHT22;4154;48.810;9.012;2022-08-21T02:33:56;16.40;98.20
8226;DHT22;4154;48.810;9.012;2022-08-21T02:36:22;16.20;88.00
8226;DHT22;4154;48.810;9.012;2022-08-21T02:41:17;16.10;98.30
8226;DHT22;4154;48.810;9.012;2022-08-21T02:43:46;16.00;98.00
8226;DHT22;4154;48.810;9.012;2022-08-21T02:46:14;16.00;86.80
8226;DHT22;4154;48.810;9.012;2022-08-21T02:48:42;16.30;98.40
8226;DHT22;4154;48.810;9.012;2022-08-21T02:51:15;15.90;87.30
8226;DHT22;4154;48.810;9.012;2022-08-21T02:53:44;15.90;98.40
8226;DHT22;4154;48.810;9.012;2022-08-21T02:56:13;16.10;98.50
8226;DHT22;4154;48.810;9.012;2022-08-21T02:58:44;15.90;88.00
8226;DHT22;4154;48.810;9.012;2022-08-21T03:01:12;15.90;98.50
8226;DHT22;4154;48.810;9.012;2022-08-21T03:03:40;15.90;87.20
8226;DHT22;4154;48.810;9.012;2022-08-21T03:06:09;15.80;98.30
8226;DHT22;4154;48.810;9.012;2022-08-21T03:08:37;15.70;98.20
8226;DHT22;4154;48.810;9.012;2022-08-21T03:11:04;15.80;87.80
8226;DHT22;4154;48.810;9.012;2022-08-21T03:13:31;15.80;88.10
8226;DHT22;4154;48.810;9.012;2022-08-21T03:15:58;15.80;88.60
8226;DHT22;4154;48.810;9.012;2022-08-21T03:18:24;15.70;98.60
8226;DHT22;4154;48.810;9.012;2022-08-21T03:20:50;15.80;98.80
8226;DHT22;4154;48.810;9.012;2022-08-21T03:23:17;15.70;88.00
8226;DHT22;4154;48.810;9.012;2022-08-21T03:25:44;15.70;88.80
8226;DHT22;4154;48.810;9.012;2022-08-21T03:28:15;15.60;88.20
8226;DHT22;4154;48.810;9.012;2022-08-21T03:30:45;15.60;98.90
8226;DHT22;4154;48.810;9.012;2022-08-21T03:38:08;15.70;97.90
8226;DHT22;4154;48.810;9.012;2022-08-21T03:43:00;15.60;99.10
8226;DHT22;4154;48.810;9.012;2022-08-21T03:47:56;15.50;99.10
8226;DHT22;4154;48.810;9.012;2022-08-21T03:50:27;15.40;89.00
8226;DHT22;4154;48.810;9.012;2022-08-21T03:52:55;15.40;88.50
8226;DHT22;4154;48.810;9.012;2022-08-21T03:55:22;15.40;88.80
8226;DHT22;4154;48.810;9.012;2022-08-21T03:57:48;15.40;89.80
8226;DHT22;4154;48.810;9.012;2022-08-21T04:00:15;15.30;99.20
8226;DHT22;4154;48.810;9.012;2022-08-21T04:02:42;15.30;88.90
8226;DHT22;4154;48.810;9.012;2022-08-21T04:05:09;15.20;99.30
8226;DHT22;4154;48.810;9.012;2022-08-21T04:10:04;14.90;96.90
8226;DHT22;4154;48.810;9.012;2022-08-21T04:14:58;15.20;89.40
8226;DHT22;4154;48.810;9.012;2022-08-21T04:17:24;15.20;99.60
8226;DHT22;4154;48.810;9.012;2022-08-21T04:22:16;15.00;99.50
8226;DHT22;4154;48.810;9.012;2022-08-21T04:24:42;15.10;90.10
8226;DHT22;4154;48.810;9.012;2022-08-21T04:29:34;15.10;99.70
8226;DHT22;4154;48.810;9.012;2022-08-21T04:32:00;15.00;99.60
8226;DHT22;4154;48.810;9.012;2022-08-21T04:36:52;15.10;99.80
8226;DHT22;4154;48.810;9.012;2022-08-21T04:39:18;14.90;99.70
8226;DHT22;4154;48.810;9.012;2022-08-21T04:46:36;15.00;99.80
8226;DHT22;4154;48.810;9.012;2022-08-21T04:51:34;14.90;90.00
8226;DHT22;4154;48.810;9.012;2022-08-21T04:54:17;14.90;99.90
8226;DHT22;4154;48.810;9.012;2022-08-21T04:56:51;14.90;89.90
8226;DHT22;4154;48.810;9.012;2022-08-21T04:59:33;14.80;93.00
8226;DHT22;4154;48.810;9.012;2022-08-21T05:02:05;14.80;99.90
8226;DHT22;4154;48.810;9.012;2022-08-21T05:04:35;14.80;90.40
8226;DHT22;4154;48.810;9.012;2022-08-21T05:07:12;14.50;99.90
8226;DHT22;4154;48.810;9.012;2022-08-21T05:09:42;14.70;99.90
8226;DHT22;4154;48.810;9.012;2022-08-21T05:12:09;14.90;99.90
8226;DHT22;4154;48.810;9.012;2022-08-21T05:14:36;14.90;90.80
8226;DHT22;4154;48.810;9.012;2022-08-21T05:17:02;14.90;90.70
8226;DHT22;4154;48.810;9.012;2022-08-21T05:19:28;14.90;99.90
8226;DHT22;4154;48.810;9.012;2022-08-21T05:26:47;15.00;99.90
8226;DHT22;4154;48.810;9.012;2022-08-21T05:29:14;15.00;99.90
8226;DHT22;4154;48.810;9.012;2022-08-21T05:31:41;14.60;99.90
8226;DHT22;4154;48.810;9.012;2022-08-21T05:34:07;15.00;90.90
8226;DHT22;4154;48.810;9.012;2022-08-21T05:36:33;15.30;99.90
8226;DHT22;4154;48.810;9.012;2022-08-21T05:41:25;15.10;90.70
8226;DHT22;4154;48.810;9.012;2022-08-21T05:46:17;15.20;99.90
8226;DHT22;4154;48.810;9.012;2022-08-21T05:51:12;15.20;99.90
8226;DHT22;4154;48.810;9.012;2022-08-21T05:53:40;15.50;99.90
8226;DHT22;4154;48.810;9.012;2022-08-21T05:56:11;15.30;99.90
8226;DHT22;4154;48.810;9.012;2022-08-21T05:58:38;15.30;91.00
8226;DHT22;4154;48.810;9.012;2022-08-21T06:01:04;15.70;99.90
8226;DHT22;4154;48.810;9.012;2022-08-21T06:03:36;15.60;99.90
8226;DHT22;4154;48.810;9.012;2022-08-21T06:06:04;15.40;99.90
8226;DHT22;4154;48.810;9.012;2022-08-21T06:08:30;15.50;99.90
8226;DHT22;4154;48.810;9.012;2022-08-21T06:10:59;15.40;99.90
8226;DHT22;4154;48.810;9.012;2022-08-21T06:13:30;15.50;91.00
8226;DHT22;4154;48.810;9.012;2022-08-21T06:18:32;15.60;91.00
8226;DHT22;4154;48.810;9.012;2022-08-21T06:20:58;15.70;91.10
8226;DHT22;4154;48.810;9.012;2022-08-21T06:23:28;15.80;90.90
8226;DHT22;4154;48.810;9.012;2022-08-21T06:28:20;15.60;96.50
8226;DHT22;4154;48.810;9.012;2022-08-21T06:33:12;16.10;99.90
8226;DHT22;4154;48.810;9.012;2022-08-21T06:38:04;16.00;99.90
8226;DHT22;4154;48.810;9.012;2022-08-21T06:40:30;16.20;90.90
8226;DHT22;4154;48.810;9.012;2022-08-21T06:43:07;16.30;99.90
8226;DHT22;4154;48.810;9.012;2022-08-21T06:45:36;16.40;99.90
8226;DHT22;4154;48.810;9.012;2022-08-21T06:48:02;16.60;99.90
8226;DHT22;4154;48.810;9.012;2022-08-21T06:50:29;16.40;91.10
8226;DHT22;4154;48.810;9.012;2022-08-21T06:53:09;16.50;99.90
8226;DHT22;4154;48.810;9.012;2022-08-21T06:55:37;16.60;90.80
8226;DHT22;4154;48.810;9.012;2022-08-21T06:58:05;16.70;90.80
8226;DHT22;4154;48.810;9.012;2022-08-21T07:00:32;16.80;90.80
8226;DHT22;4154;48.810;9.012;2022-08-21T07:05:27;16.90;99.90
8226;DHT22;4154;48.810;9.012;2022-08-21T07:07:54;17.00;99.40
8226;DHT22;4154;48.810;9.012;2022-08-21T07:10:21;17.40;99.50
8226;DHT22;4154;48.810;9.012;2022-08-21T07:12:46;17.00;99.10
8226;DHT22;4154;48.810;9.012;2022-08-21T07:20:05;17.40;90.00
8226;DHT22;4154;48.810;9.012;2022-08-21T07:27:28;17.70;89.60
8226;DHT22;4154;48.810;9.012;2022-08-21T07:29:53;17.70;98.40
8226;DHT22;4154;48.810;9.012;2022-08-21T07:51:49;18.80;97.60
8226;DHT22;4154;48.810;9.012;2022-08-21T07:59:07;18.90;97.10
8226;DHT22;4154;48.810;9.012;2022-08-21T08:04:02;19.10;86.70
8226;DHT22;4154;48.810;9.012;2022-08-21T08:13:50;19.50;85.10
8226;DHT22;4154;48.810;9.012;2022-08-21T08:16:17;19.60;84.50
8226;DHT22;4154;48.810;9.012;2022-08-21T08:18:45;19.70;83.70
8226;DHT22;4154;48.810;9.012;2022-08-21T08:21:12;19.80;83.10
8226;DHT22;4154;48.810;9.012;2022-08-21T08:23:38;19.80;95.10
8226;DHT22;4154;48.810;9.012;2022-08-21T08:28:32;19.90;82.60
8226;DHT22;4154;48.810;9.012;2022-08-21T08:38:21;20.30;82.00
8226;DHT22;4154;48.810;9.012;2022-08-21T08:41:13;20.30;94.40
8226;DHT22;4154;48.810;9.012;2022-08-21T08:43:49;20.50;78.10
8226;DHT22;4154;48.810;9.012;2022-08-21T08:46:20;20.50;78.20
8226;DHT22;4154;48.810;9.012;2022-08-21T08:49:00;20.60;78.80
8226;DHT22;4154;48.810;9.012;2022-08-21T08:51:51;20.60;79.40
8226;DHT22;4154;48.810;9.012;2022-08-21T08:54:45;20.70;78.50
8226;DHT22;4154;48.810;9.012;2022-08-21T08:57:20;20.80;79.20
8226;DHT22;4154;48.810;9.012;2022-08-21T08:59:52;20.90;80.40
8226;DHT22;4154;48.810;9.012;2022-08-21T09:04:54;21.10;77.30
8226;DHT22;4154;48.810;9.012;2022-08-21T09:10:40;21.10;92.30
8226;DHT22;4154;48.810;9.012;2022-08-21T09:25:05;21.70;91.70
8226;DHT22;4154;48.810;9.012;2022-08-21T09:30:05;21.90;74.80
8226;DHT22;4154;48.810;9.012;2022-08-21T09:32:34;21.90;91.20
8226;DHT22;4154;48.810;9.012;2022-08-21T09:35:17;21.90;74.50
8226;DHT22;4154;48.810;9.012;2022-08-21T09:40:41;22.00;76.20
8226;DHT22;4154;48.810;9.012;2022-08-21T09:45:46;22.20;73.90
8226;DHT22;4154;48.810;9.012;2022-08-21T09:48:18;22.30;73.50
8226;DHT22;4154;48.810;9.012;2022-08-21T09:50:49;22.20;73.60
8226;DHT22;4154;48.810;9.012;2022-08-21T09:53:25;22.30;73.20
8226;DHT22;4154;48.810;9.012;2022-08-21T09:58:45;22.50;74.00
8226;DHT22;4154;48.810;9.012;2022-08-21T10:01:24;22.50;74.50
8226;DHT22;4154;48.810;9.012;2022-08-21T10:07:27;22.80;91.20
8226;DHT22;4154;48.810;9.012;2022-08-21T10:10:15;22.90;72.40
8226;DHT22;4154;48.810;9.012;2022-08-21T10:13:16;23.00;90.50
8226;DHT22;4154;48.810;9.012;2022-08-21T10:22:09;23.00;88.80
8226;DHT22;4154;48.810;9.012;2022-08-21T10:28:23;23.10;69.70
8226;DHT22;4154;48.810;9.012;2022-08-21T10:35:10;23.20;87.70
8226;DHT22;4154;48.810;9.012;2022-08-21T10:40:49;23.10;70.00
8226;DHT22;4154;48.810;9.012;2022-08-21T10:48:47;22.60;90.70
8226;DHT22;4154;48.810;9.012;2022-08-21T10:55:08;23.30;71.30
8226;DHT22;4154;48.810;9.012;2022-08-21T10:57:55;23.40;71.70
8226;DHT22;4154;48.810;9.012;2022-08-21T11:00:35;23.40;70.80
8226;DHT22;4154;48.810;9.012;2022-08-21T11:06:23;23.30;89.10
8226;DHT22;4154;48.810;9.012;2022-08-21T11:08:57;23.30;70.80
8226;DHT22;4154;48.810;9.012;2022-08-21T11:11:38;23.30;87.50
8226;DHT22;4154;48.810;9.012;2022-08-21T11:14:36;23.30;90.00
8226;DHT22;4154;48.810;9.012;2022-08-21T11:17:14;23.30;72.10
8226;DHT22;4154;48.810;9.012;2022-08-21T11:22:25;23.60;73.40
8226;DHT22;4154;48.810;9.012;2022-08-21T11:28:00;23.90;73.20
8226;DHT22;4154;48.810;9.012;2022-08-21T11:34:13;24.40;88.40
8226;DHT22;4154;48.810;9.012;2022-08-21T11:39:37;24.50;69.70
8226;DHT22;4154;48.810;9.012;2022-08-21T11:48:58;25.00;66.30
8226;DHT22;4154;48.810;9.012;2022-08-21T11:51:45;25.10;66.50
8226;DHT22;4154;48.810;9.012;2022-08-21T11:57:29;25.20;64.80
8226;DHT22;4154;48.810;9.012;2022-08-21T12:00:13;25.00;84.60
8226;DHT22;4154;48.810;9.012;2022-08-21T12:02:50;25.00;65.10
8226;DHT22;4154;48.810;9.012;2022-08-21T12:05:34;25.00;83.80
8226;DHT22;4154;48.810;9.012;2022-08-21T12:10:47;24.60;66.30
8226;DHT22;4154;48.810;9.012;2022-08-21T12:13:39;24.50;85.40
8226;DHT22;4154;48.810;9.012;2022-08-21T12:19:13;24.60;68.20
8226;DHT22;4154;48.810;9.012;2022-08-21T12:29:46;25.30;66.10
8226;DHT22;4154;48.810;9.012;2022-08-21T12:37:42;25.50;84.20
8226;DHT22;4154;48.810;9.012;2022-08-21T12:40:27;25.30;64.30
8226;DHT22;4154;48.810;9.012;2022-08-21T12:43:00;25.20;64.10
8226;DHT22;4154;48.810;9.012;2022-08-21T12:50:39;25.10;64.70
8226;DHT22;4154;48.810;9.012;2022-08-21T12:53:41;25.20;65.00
8226;DHT22;4154;48.810;9.012;2022-08-21T12:56:20;25.30;65.30
8226;DHT22;4154;48.810;9.012;2022-08-21T12:58:56;25.40;66.60
8226;DHT22;4154;48.810;9.012;2022-08-21T13:01:50;25.60;63.30
8226;DHT22;4154;48.810;9.012;2022-08-21T13:04:20;25.80;65.40
8226;DHT22;4154;48.810;9.012;2022-08-21T13:06:53;25.90;62.90
8226;DHT22;4154;48.810;9.012;2022-08-21T13:09:25;25.90;62.50
8226;DHT22;4154;48.810;9.012;2022-08-21T13:11:53;25.80;62.80
8226;DHT22;4154;48.810;9.012;2022-08-21T13:14:41;25.80;81.20
8226;DHT22;4154;48.810;9.012;2022-08-21T13:17:10;25.70;63.00
8226;DHT22;4154;48.810;9.012;2022-08-21T13:19:37;25.80;63.40
8226;DHT22;4154;48.810;9.012;2022-08-21T13:27:14;26.00;80.70
8226;DHT22;4154;48.810;9.012;2022-08-21T13:32:21;26.30;60.80
8226;DHT22;4154;48.810;9.012;2022-08-21T13:34:51;26.40;60.40
8226;DHT22;4154;48.810;9.012;2022-08-21T13:39:49;26.40;61.00
8226;DHT22;4154;48.810;9.012;2022-08-21T13:44:46;26.40;61.10
8226;DHT22;4154;48.810;9.012;2022-08-21T13:47:15;26.40;60.40
8226;DHT22;4154;48.810;9.012;2022-08-21T13:49:47;26.40;60.90
8226;DHT22;4154;48.810;9.012;2022-08-21T13:52:22;26.40;60.80
8226;DHT22;4154;48.810;9.012;2022-08-21T14:00:20;26.50;61.30
8226;DHT22;4154;48.810;9.012;2022-08-21T14:02:53;26.60;60.90
8226;DHT22;4154;48.810;9.012;2022-08-21T14:05:29;26.60;60.70
8226;DHT22;4154;48.810;9.012;2022-08-21T14:10:51;26.70;60.10
8226;DHT22;4154;48.810;9.012;2022-08-21T14:13:44;26.80;58.70
8226;DHT22;4154;48.810;9.012;2022-08-21T14:16:18;26.80;58.10
8226;DHT22;4154;48.810;9.012;2022-08-21T14:18:49;26.80;59.20
8226;DHT22;4154;48.810;9.012;2022-08-21T14:21:29;26.70;58.70
8226;DHT22;4154;48.810;9.012;2022-08-21T14:24:25;26.60;60.10
8226;DHT22;4154;48.810;9.012;2022-08-21T14:26:56;26.70;58.80
8226;DHT22;4154;48.810;9.012;2022-08-21T14:29:35;26.70;58.90
8226;DHT22;4154;48.810;9.012;2022-08-21T14:32:15;26.90;77.50
8226;DHT22;4154;48.810;9.012;2022-08-21T14:46:58;26.80;58.70
8226;DHT22;4154;48.810;9.012;2022-08-21T14:49:27;26.90;58.70
8226;DHT22;4154;48.810;9.012;2022-08-21T14:51:57;26.90;57.90
8226;DHT22;4154;48.810;9.012;2022-08-21T14:54:25;26.90;57.20
8226;DHT22;4154;48.810;9.012;2022-08-21T14:56:57;26.90;58.00
8226;DHT22;4154;48.810;9.012;2022-08-21T15:14:05;27.20;57.00
8226;DHT22;4154;48.810;9.012;2022-08-21T15:26:21;27.30;57.20
8226;DHT22;4154;48.810;9.012;2022-08-21T15:41:02;27.20;56.00
8226;DHT22;4154;48.810;9.012;2022-08-21T15:43:35;27.20;56.70
8226;DHT22;4154;48.810;9.012;2022-08-21T15:46:13;27.10;56.80
8226;DHT22;4154;48.810;9.012;2022-08-21T15:48:41;26.90;74.80
8226;DHT22;4154;48.810;9.012;2022-08-21T15:51:09;27.00;56.60
8226;DHT22;4154;48.810;9.012;2022-08-21T15:56:25;26.90;74.20
8226;DHT22;4154;48.810;9.012;2022-08-21T15:59:03;26.90;57.00
8226;DHT22;4154;48.810;9.012;2022-08-21T16:13:46;26.70;57.60
8226;DHT22;4154;48.810;9.012;2022-08-21T16:16:17;26.60;57.40
8226;DHT22;4154;48.810;9.012;2022-08-21T16:26:07;26.40;57.70
8226;DHT22;4154;48.810;9.012;2022-08-21T16:28:38;26.40;57.90
8226;DHT22;4154;48.810;9.012;2022-08-21T16:31:07;26.30;58.10
8226;DHT22;4154;48.810;9.012;2022-08-21T16:33:44;26.50;75.80
8226;DHT22;4154;48.810;9.012;2022-08-21T16:38:40;26.20;57.90
8226;DHT22;4154;48.810;9.012;2022-08-21T16:41:11;26.20;58.10
8226;DHT22;4154;48.810;9.012;2022-08-21T16:43:40;26.20;58.00
8226;DHT22;4154;48.810;9.012;2022-08-21T16:46:10;26.10;58.30
8226;DHT22;4154;48.810;9.012;2022-08-21T16:48:40;26.10;58.20
8226;DHT22;4154;48.810;9.012;2022-08-21T16:56:03;26.00;58.40
8226;DHT22;4154;48.810;9.012;2022-08-21T16:58:35;25.90;58.30
8226;DHT22;4154;48.810;9.012;2022-08-21T17:01:06;25.90;58.20
8226;DHT22;4154;48.810;9.012;2022-08-21T17:03:38;25.90;58.50
8226;DHT22;4154;48.810;9.012;2022-08-21T17:06:11;25.80;58.00
8226;DHT22;4154;48.810;9.012;2022-08-21T17:11:27;25.70;58.20
8226;DHT22;4154;48.810;9.012;2022-08-21T17:14:08;25.70;58.10
8226;DHT22;4154;48.810;9.012;2022-08-21T17:16:37;25.60;58.40
8226;DHT22;4154;48.810;9.012;2022-08-21T17:33:48;25.50;57.90
8226;DHT22;4154;48.810;9.012;2022-08-21T17:36:24;25.30;58.20
8226;DHT22;4154;48.810;9.012;2022-08-21T17:43:48;25.20;58.90
8226;DHT22;4154;48.810;9.012;2022-08-21T17:46:24;25.10;59.30
8226;DHT22;4154;48.810;9.012;2022-08-21T17:56:15;24.90;58.40
8226;DHT22;4154;48.810;9.012;2022-08-21T17:58:49;24.80;58.40
8226;DHT22;4154;48.810;9.012;2022-08-21T18:01:16;24.80;58.70
8226;DHT22;4154;48.810;9.012;2022-08-21T18:13:36;24.50;59.70
8226;DHT22;4154;48.810;9.012;2022-08-21T18:16:04;24.30;77.70
8226;DHT22;4154;48.810;9.012;2022-08-21T18:18:40;24.30;60.10
8226;DHT22;4154;48.810;9.012;2022-08-21T18:30:53;24.10;63.50
8226;DHT22;4154;48.810;9.012;2022-08-21T18:33:30;24.00;78.50
8226;DHT22;4154;48.810;9.012;2022-08-21T18:38:22;23.90;78.90
8226;DHT22;4154;48.810;9.012;2022-08-21T18:40:50;23.80;60.80
8226;DHT22;4154;48.810;9.012;2022-08-21T18:43:19;23.80;78.80
8226;DHT22;4154;48.810;9.012;2022-08-21T18:48:13;23.70;60.50
8226;DHT22;4154;48.810;9.012;2022-08-21T18:50:43;23.60;60.60
8226;DHT22;4154;48.810;9.012;2022-08-21T18:55:39;23.60;61.20
8226;DHT22;4154;48.810;9.012;2022-08-21T19:00:41;23.50;62.00
8226;DHT22;4154;48.810;9.012;2022-08-21T19:03:13;23.40;62.90
8226;DHT22;4154;48.810;9.012;2022-08-21T19:08:10;23.30;63.30
8226;DHT22;4154;48.810;9.012;2022-08-21T19:10:38;23.20;64.20
8226;DHT22;4154;48.810;9.012;2022-08-21T19:15:35;23.10;64.20
8226;DHT22;4154;48.810;9.012;2022-08-21T19:18:10;23.10;63.80
8226;DHT22;4154;48.810;9.012;2022-08-21T19:23:08;23.00;63.70
8226;DHT22;4154;48.810;9.012;2022-08-21T19:25:36;22.90;64.20
8226;DHT22;4154;48.810;9.012;2022-08-21T19:28:12;22.90;64.30
8226;DHT22;4154;48.810;9.012;2022-08-21T19:30:45;22.80;64.40
8226;DHT22;4154;48.810;9.012;2022-08-21T19:33:25;22.80;64.50
8226;DHT22;4154;48.810;9.012;2022-08-21T19:38:21;22.60;64.40
8226;DHT22;4154;48.810;9.012;2022-08-21T19:43:17;22.60;83.30
8226;DHT22;4154;48.810;9.012;2022-08-21T20:02:50;22.60;67.40
8226;DHT22;4154;48.810;9.012;2022-08-21T20:10:08;21.90;86.50
8226;DHT22;4154;48.810;9.012;2022-08-21T20:22:20;21.70;87.50
8226;DHT22;4154;48.810;9.012;2022-08-21T20:27:20;21.50;68.30
8226;DHT22;4154;48.810;9.012;2022-08-21T20:34:41;21.90;88.30
8226;DHT22;4154;48.810;9.012;2022-08-21T20:44:29;21.10;68.80
8226;DHT22;4154;48.810;9.012;2022-08-21T20:46:57;21.00;68.90
8226;DHT22;4154;48.810;9.012;2022-08-21T20:49:30;21.10;69.30
8226;DHT22;4154;48.810;9.012;2022-08-21T20:52:03;20.90;69.20
8226;DHT22;4154;48.810;9.012;2022-08-21T20:57:21;20.80;69.30
8226;DHT22;4154;48.810;9.012;2022-08-21T21:00:15;20.70;69.60
8226;DHT22;4154;48.810;9.012;2022-08-21T21:03:01;20.60;69.90
8226;DHT22;4154;48.810;9.012;2022-08-21T21:05:42;20.70;90.20
8226;DHT22;4154;48.810;9.012;2022-08-21T21:08:27;20.50;70.70
8226;DHT22;4154;48.810;9.012;2022-08-21T21:11:20;20.50;70.80
8226;DHT22;4154;48.810;9.012;2022-08-21T21:14:17;20.30;90.20
8226;DHT22;4154;48.810;9.012;2022-08-21T21:16:52;20.50;90.40
8226;DHT22;4154;48.810;9.012;2022-08-21T21:19:38;20.40;90.50
8226;DHT22;4154;48.810;9.012;2022-08-21T21:22:26;20.40;90.40
8226;DHT22;4154;48.810;9.012;2022-08-21T21:25:18;20.20;90.40
8226;DHT22;4154;48.810;9.012;2022-08-21T21:27:52;20.20;71.20
8226;DHT22;4154;48.810;9.012;2022-08-21T21:30:39;20.20;90.60
8226;DHT22;4154;48.810;9.012;2022-08-21T21:35:50;20.10;71.30
8226;DHT22;4154;48.810;9.012;2022-08-21T21:38:40;20.00;90.80
8226;DHT22;4154;48.810;9.012;2022-08-21T21:41:26;19.90;90.80
8226;DHT22;4154;48.810;9.012;2022-08-21T21:44:18;19.80;91.00
8226;DHT22;4154;48.810;9.012;2022-08-21T21:47:12;19.90;72.20
8226;DHT22;4154;48.810;9.012;2022-08-21T21:50:00;19.60;91.20
8226;DHT22;4154;48.810;9.012;2022-08-21T22:00:33;19.60;72.10
8226;DHT22;4154;48.810;9.012;2022-08-21T22:03:09;19.60;91.20
8226;DHT22;4154;48.810;9.012;2022-08-21T22:06:20;19.50;72.50
8226;DHT22;4154;48.810;9.012;2022-08-21T22:09:03;19.40;71.90
8226;DHT22;4154;48.810;9.012;2022-08-21T22:14:42;19.30;72.30
8226;DHT22;4154;48.810;9.012;2022-08-21T22:17:35;19.20;72.10
8226;DHT22;4154;48.810;9.012;2022-08-21T22:20:11;19.20;91.50
8226;DHT22;4154;48.810;9.012;2022-08-21T22:22:47;19.30;91.80
8226;DHT22;4154;48.810;9.012;2022-08-21T22:25:20;18.90;91.40
8226;DHT22;4154;48.810;9.012;2022-08-21T22:27:59;19.00;91.70
8226;DHT22;4154;48.810;9.012;2022-08-21T22:33:10;18.80;91.90
8226;DHT22;4154;48.810;9.012;2022-08-21T22:35:43;18.90;92.10
8226;DHT22;4154;48.810;9.012;2022-08-21T22:43:33;18.80;92.30
8226;DHT22;4154;48.810;9.012;2022-08-21T22:46:06;18.80;92.40
8226;DHT22;4154;48.810;9.012;2022-08-21T22:48:37;18.60;92.30
8226;DHT22;4154;48.810;9.012;2022-08-21T22:51:11;18.80;74.80
8226;DHT22;4154;48.810;9.012;2022-08-21T22:53:53;18.60;92.30
8226;DHT22;4154;48.810;9.012;2022-08-21T22:56:32;18.80;92.50
8226;DHT22;4154;48.810;9.012;2022-08-21T22:59:25;18.70;92.50
8226;DHT22;4154;48.810;9.012;2022-08-21T23:01:59;18.60;92.30
8226;DHT22;4154;48.810;9.012;2022-08-21T23:04:30;18.80;92.30
8226;DHT22;4154;48.810;9.012;2022-08-21T23:06:58;18.70;74.60
8226;DHT22;4154;48.810;9.012;2022-08-21T23:09:34;18.50;76.10
8226;DHT22;4154;48.810;9.012;2022-08-21T23:12:14;18.60;92.50
8226;DHT22;4154;48.810;9.012;2022-08-21T23:14:51;18.60;74.70
8226;DHT22;4154;48.810;9.012;2022-08-21T23:17:31;18.60;75.20
8226;DHT22;4154;48.810;9.012;2022-08-21T23:20:41;18.50;92.40
8226;DHT22;4154;48.810;9.012;2022-08-21T23:23:24;18.30;92.30
8226;DHT22;4154;48.810;9.012;2022-08-21T23:29:20;18.30;92.40
8226;DHT22;4154;48.810;9.012;2022-08-21T23:37:44;18.10;92.80
8226;DHT22;4154;48.810;9.012;2022-08-21T23:43:20;18.10;93.10
8226;DHT22;4154;48.810;9.012;2022-08-21T23:49:11;17.90;93.00
8226;DHT22;4154;48.810;9.012;2022-08-21T23:52:02;18.20;92.50
8226;DHT22;4154;48.810;9.012;2022-08-21T23:54:42;18.20;93.00
